Time;durP1;ratioP1;P1;durP2;ratioP2;P2;SDS_P1;SDS_P2;PMS_P1;PMS_P2;Temp;Humidity;BMP_temperature;BMP_pressure;BME280_temperature;BME280_humidity;BME280_pressure;Samples;Min_cycle;Max_cycle;Signal;HPM_P1;HPM_P2
2022/10/17 00:05:57;;;;;;;11.52;5.10;;;;;;;12.43;100.00;100803.41;20498771;29;20428;-70
2022/10/17 00:15:59;;;;;;;15.70;7.05;;;;;;;12.41;100.00;100805.22;20498762;29;20043;-70
2022/10/17 00:26:00;;;;;;;11.85;5.70;;;;;;;12.33;100.00;100815.84;20498249;29;20141;-69
2022/10/17 00:36:01;;;;;;;14.02;6.75;;;;;;;12.26;100.00;100827.34;20569772;28;20051;-69
2022/10/17 00:46:03;;;;;;;20.92;6.90;;;;;;;12.25;100.00;100832.59;20577019;28;20532;-70
2022/10/17 00:56:04;;;;;;;11.68;5.95;;;;;;;12.19;100.00;100825.69;20576049;28;20078;-70
2022/10/17 01:06:05;;;;;;;13.13;6.50;;;;;;;12.11;100.00;100826.69;20574986;28;20061;-69
2022/10/17 01:16:06;;;;;;;20.65;7.40;;;;;;;12.13;100.00;100830.19;20576252;28;20089;-71
2022/10/17 01:26:08;;;;;;;13.05;6.10;;;;;;;12.11;100.00;100838.06;20575024;28;20049;-73
2022/10/17 01:36:09;;;;;;;14.10;5.55;;;;;;;12.10;100.00;100835.47;20501643;28;20051;-71
2022/10/17 01:46:10;;;;;;;10.82;5.57;;;;;;;12.03;100.00;100830.31;20496148;29;20055;-72
2022/10/17 01:56:12;;;;;;;14.38;6.20;;;;;;;12.00;100.00;100822.47;20498619;28;20495;-73
2022/10/17 02:06:13;;;;;;;7.97;5.10;;;;;;;11.99;100.00;100818.13;20507982;28;20055;-71
2022/10/17 02:16:14;;;;;;;13.35;5.40;;;;;;;11.94;100.00;100825.19;20509187;28;20445;-72
2022/10/17 02:26:16;;;;;;;11.40;5.25;;;;;;;11.93;100.00;100826.09;20508617;28;20085;-69
2022/10/17 02:36:17;;;;;;;15.35;5.95;;;;;;;11.86;100.00;100823.56;20506455;29;20175;-70
2022/10/17 02:46:22;;;;;;;10.35;5.45;;;;;;;11.79;100.00;100820.16;20505827;29;20051;-71
2022/10/17 02:56:23;;;;;;;14.27;6.13;;;;;;;11.80;100.00;100821.88;20505479;29;20457;-71
2022/10/17 03:06:24;;;;;;;14.20;5.72;;;;;;;11.77;100.00;100837.63;20505690;28;20806;-71
2022/10/17 03:16:25;;;;;;;8.68;5.47;;;;;;;11.69;100.00;100829.91;20504287;28;20420;-72
2022/10/17 03:26:28;;;;;;;10.95;5.45;;;;;;;11.61;100.00;100830.88;20502828;28;20055;-70
2022/10/17 03:36:29;;;;;;;10.50;5.15;;;;;;;11.54;100.00;100832.69;20501786;29;20071;-71
2022/10/17 03:46:31;;;;;;;7.93;4.72;;;;;;;11.45;100.00;100846.81;20501161;29;20066;-70
2022/10/17 03:56:32;;;;;;;11.43;5.88;;;;;;;11.44;100.00;100850.28;20439024;28;20146;-70
2022/10/17 04:06:33;;;;;;;9.88;5.50;;;;;;;11.46;100.00;100871.28;20420684;29;20047;-69
2022/10/17 04:16:35;;;;;;;12.00;5.90;;;;;;;11.37;100.00;100874.88;20419639;29;20083;-70
2022/10/17 04:26:36;;;;;;;8.32;5.35;;;;;;;11.39;100.00;100883.56;20418581;29;20083;-70
2022/10/17 04:36:37;;;;;;;10.32;5.40;;;;;;;11.33;100.00;100881.03;20570676;28;20061;-70
2022/10/17 04:46:39;;;;;;;13.95;6.70;;;;;;;11.28;100.00;100888.06;20577209;28;20527;-70
2022/10/17 04:56:40;;;;;;;12.38;6.00;;;;;;;11.26;100.00;100893.34;20485288;28;20090;-70
2022/10/17 05:06:41;;;;;;;10.73;6.10;;;;;;;11.19;100.00;100893.41;20415937;29;20163;-71
2022/10/17 05:16:43;;;;;;;12.18;7.05;;;;;;;11.17;100.00;100898.69;20415880;29;20048;-69
2022/10/17 05:26:44;;;;;;;34.35;17.25;;;;;;;11.11;100.00;100903.09;20417162;29;20072;-72
2022/10/17 05:36:45;;;;;;;12.57;7.35;;;;;;;11.20;100.00;100913.47;20582569;28;20235;-72
2022/10/17 05:46:47;;;;;;;15.30;8.02;;;;;;;11.13;100.00;100922.31;20589679;28;20047;-72
2022/10/17 05:56:48;;;;;;;13.52;7.22;;;;;;;11.04;100.00;100933.75;20587594;28;20089;-71
2022/10/17 06:06:49;;;;;;;12.80;6.10;;;;;;;11.08;100.00;100937.22;20587397;28;20404;-72
2022/10/17 06:16:51;;;;;;;11.27;6.30;;;;;;;11.15;100.00;100946.75;20532025;28;20142;-71
2022/10/17 06:26:52;;;;;;;10.48;6.00;;;;;;;11.21;100.00;100951.91;20506691;29;20138;-71
2022/10/17 06:36:53;;;;;;;10.45;6.15;;;;;;;11.36;100.00;100961.41;20514426;28;20811;-72
2022/10/17 06:46:55;;;;;;;11.52;5.85;;;;;;;11.59;100.00;100979.50;20505983;28;20051;-71
2022/10/17 06:56:56;;;;;;;16.23;6.70;;;;;;;11.89;100.00;100971.34;20530463;28;20058;-69
2022/10/17 07:06:57;;;;;;;12.48;6.70;;;;;;;12.32;100.00;100990.03;20515526;28;20063;-70
2022/10/17 07:16:59;;;;;;;14.82;5.85;;;;;;;12.56;100.00;100994.09;20497721;29;20110;-70
2022/10/17 07:27:00;;;;;;;11.52;5.80;;;;;;;12.82;100.00;101019.97;20499231;28;20488;-68
2022/10/17 07:37:01;;;;;;;10.77;6.68;;;;;;;13.17;100.00;101029.03;20499340;28;20134;-69
2022/10/17 07:47:03;;;;;;;15.00;6.15;;;;;;;13.50;100.00;101027.63;20499119;28;20086;-70
2022/10/17 07:57:04;;;;;;;13.43;6.95;;;;;;;13.91;100.00;101028.66;20498536;28;20212;-69
2022/10/17 08:07:05;;;;;;;11.82;5.47;;;;;;;14.30;100.00;101036.66;20498975;28;20083;-71
2022/10/17 08:17:22;;;;;;;13.90;6.82;;;;;;;14.82;100.00;101032.91;20498549;28;20138;-71
2022/10/17 08:27:24;;;;;;;9.63;5.40;;;;;;;15.10;100.00;101041.91;20497468;28;20122;-71
2022/10/17 08:37:25;;;;;;;9.57;4.95;;;;;;;15.41;100.00;101046.41;20495957;29;20082;-72
2022/10/17 08:47:27;;;;;;;10.88;4.68;;;;;;;15.75;100.00;101035.00;20496364;29;20051;-72
2022/10/17 08:57:29;;;;;;;9.98;4.85;;;;;;;16.17;100.00;101039.09;20495326;29;20054;-72
2022/10/17 09:07:31;;;;;;;9.57;4.15;;;;;;;16.60;100.00;101036.97;20494824;28;20051;-71
2022/10/17 09:17:33;;;;;;;7.55;3.65;;;;;;;17.00;100.00;101033.97;20493574;29;20489;-71
2022/10/17 09:27:34;;;;;;;10.80;3.15;;;;;;;17.28;100.00;101041.88;20498609;28;20491;-71
2022/10/17 09:37:36;;;;;;;6.57;3.53;;;;;;;17.46;100.00;101039.53;20573290;28;20047;-71
2022/10/17 09:47:38;;;;;;;7.25;2.85;;;;;;;17.79;100.00;101045.47;20574464;28;20047;-71
2022/10/17 09:57:39;;;;;;;11.25;3.70;;;;;;;18.09;100.00;101059.41;20571435;28;20078;-71
2022/10/17 10:07:40;;;;;;;7.60;3.00;;;;;;;18.48;100.00;101051.75;20572438;28;20182;-70
2022/10/17 10:17:42;;;;;;;7.25;2.67;;;;;;;18.76;100.00;101058.69;20575501;28;20054;-71
2022/10/17 10:27:43;;;;;;;11.82;3.60;;;;;;;19.09;100.00;101054.69;20580171;28;20074;-70
2022/10/17 10:37:44;;;;;;;6.50;2.67;;;;;;;19.50;100.00;101054.78;20505038;29;20130;-70
2022/10/17 10:47:46;;;;;;;7.40;3.20;;;;;;;19.87;100.00;101061.19;20571138;28;20074;-70
2022/10/17 10:57:47;;;;;;;6.53;2.50;;;;;;;20.09;100.00;101059.31;20504935;28;20139;-70
2022/10/17 11:07:48;;;;;;;5.15;2.22;;;;;;;20.28;100.00;101066.47;20507444;28;20085;-70
2022/10/17 11:17:50;;;;;;;6.57;2.55;;;;;;;20.51;100.00;101073.44;20509548;28;20051;-70
2022/10/17 11:27:51;;;;;;;6.40;2.40;;;;;;;20.71;100.00;101066.22;20501387;28;20464;-70
2022/10/17 11:37:52;;;;;;;7.90;2.53;;;;;;;20.99;100.00;101070.25;20500507;29;20071;-70
2022/10/17 11:47:54;;;;;;;5.97;2.42;;;;;;;21.13;100.00;101078.41;20500282;29;20047;-70
2022/10/17 11:57:55;;;;;;;9.18;2.53;;;;;;;21.14;100.00;101074.81;20498881;29;20540;-70
2022/10/17 12:07:56;;;;;;;8.65;2.72;;;;;;;21.20;100.00;101068.31;20534815;28;20058;-70
2022/10/17 12:18:00;;;;;;;5.88;2.67;;;;;;;21.17;100.00;101058.66;20577622;28;20113;-70
2022/10/17 12:28:01;;;;;;;7.53;2.20;;;;;;;21.31;100.00;101059.81;20576672;28;20054;-70
2022/10/17 12:38:03;;;;;;;10.60;3.15;;;;;;;21.46;100.00;101059.03;20575384;28;20050;-70
2022/10/17 12:48:04;;;;;;;7.28;2.70;;;;;;;21.64;100.00;101057.25;20575459;28;20078;-71
2022/10/17 12:58:08;;;;;;;6.78;2.58;;;;;;;21.78;100.00;101054.75;20574602;28;20624;-70
2022/10/17 13:08:09;;;;;;;8.70;2.30;;;;;;;21.91;100.00;101057.66;20572981;28;20054;-70
2022/10/17 13:18:10;;;;;;;9.27;2.60;;;;;;;21.86;100.00;101062.34;20575397;28;20159;-70
2022/10/17 13:28:15;;;;;;;8.93;2.58;;;;;;;22.12;100.00;101064.53;20566096;28;20083;-70
2022/10/17 13:38:16;;;;;;;6.50;2.42;;;;;;;22.22;100.00;101068.41;20492706;29;20081;-70
2022/10/17 13:48:17;;;;;;;7.07;2.78;;;;;;;22.27;100.00;101068.19;20492243;29;20074;-70
2022/10/17 13:58:19;;;;;;;5.63;2.45;;;;;;;22.38;100.00;101064.94;20505802;28;20079;-69
2022/10/17 14:08:20;;;;;;;7.53;2.90;;;;;;;22.31;100.00;101071.56;20504166;28;20071;-69
2022/10/17 14:18:24;;;;;;;10.13;2.80;;;;;;;22.21;99.75;101069.38;20504700;28;20098;-70
2022/10/17 14:28:25;;;;;;;7.47;2.33;;;;;;;22.18;100.00;101079.34;20516308;28;20054;-69
2022/10/17 14:38:26;;;;;;;6.50;2.45;;;;;;;22.24;97.49;101082.56;20549305;28;20070;-69
2022/10/17 14:48:28;;;;;;;6.65;2.75;;;;;;;22.08;100.00;101084.25;20505295;28;20090;-69
2022/10/17 14:58:32;;;;;;;4.30;2.40;;;;;;;22.04;100.00;101088.06;20503269;28;20133;-70
2022/10/17 15:08:33;;;;;;;6.45;2.90;;;;;;;21.95;100.00;101109.88;20501155;28;20437;-70
2022/10/17 15:18:35;;;;;;;7.13;2.65;;;;;;;21.69;100.00;101106.72;20502306;28;20529;-70
2022/10/17 15:28:36;;;;;;;5.57;2.60;;;;;;;21.62;100.00;101125.78;20512914;28;20484;-69
2022/10/17 15:38:38;;;;;;;5.70;2.50;;;;;;;21.47;100.00;101114.94;20579208;28;20086;-70
2022/10/17 15:48:39;;;;;;;12.55;6.07;;;;;;;21.01;100.00;101124.25;20580446;28;20488;-74
2022/10/17 15:58:40;;;;;;;9.35;3.40;;;;;;;20.58;100.00;101125.41;20578711;28;20070;-73
2022/10/17 16:08:42;;;;;;;7.93;3.33;;;;;;;19.94;100.00;101135.28;20509968;28;20057;-79
2022/10/17 16:18:43;;;;;;;6.45;3.28;;;;;;;19.59;100.00;101139.38;20489137;28;20142;-74
2022/10/17 16:28:44;;;;;;;8.48;3.90;;;;;;;19.22;100.00;101154.16;20503237;28;20078;-73
2022/10/17 16:38:46;;;;;;;9.35;4.75;;;;;;;18.82;100.00;101161.91;20538903;28;20063;-75
2022/10/17 16:48:48;;;;;;;19.48;5.65;;;;;;;18.51;100.00;101159.50;20489022;28;20047;-74
2022/10/17 16:58:49;;;;;;;10.82;4.57;;;;;;;18.26;100.00;101171.00;20476182;28;20054;-73
2022/10/17 17:08:50;;;;;;;11.38;4.15;;;;;;;18.06;100.00;101169.06;20564780;28;20078;-73
2022/10/17 17:18:51;;;;;;;11.63;4.68;;;;;;;17.85;100.00;101177.72;20487598;28;20138;-73
2022/10/17 17:28:53;;;;;;;13.15;5.43;;;;;;;17.76;100.00;101172.72;20509926;28;20134;-74
2022/10/17 17:38:54;;;;;;;14.00;7.93;;;;;;;17.77;100.00;101182.38;20581150;28;20046;-73
2022/10/17 17:48:55;;;;;;;18.33;13.23;;;;;;;17.77;100.00;101191.19;20577449;28;20138;-74
2022/10/17 17:58:57;;;;;;;12.45;6.45;;;;;;;17.80;100.00;101200.84;20499137;29;20138;-73
2022/10/17 18:08:58;;;;;;;9.32;5.50;;;;;;;17.75;100.00;101208.06;20499018;28;20150;-74
2022/10/17 18:18:59;;;;;;;15.10;7.25;;;;;;;17.63;100.00;101207.53;20498589;28;20055;-73
2022/10/17 18:29:07;;;;;;;10.82;6.95;;;;;;;17.53;100.00;101211.38;20514502;28;20448;-74
2022/10/17 18:39:08;;;;;;;16.88;8.35;;;;;;;17.46;100.00;101208.97;20576121;28;20583;-73
2022/10/17 18:49:09;;;;;;;13.68;8.93;;;;;;;17.32;100.00;101206.75;20576467;28;20082;-74
2022/10/17 18:59:11;;;;;;;14.15;8.38;;;;;;;17.00;100.00;101202.41;20575792;28;20070;-72
2022/10/17 19:09:12;;;;;;;13.60;7.00;;;;;;;16.74;100.00;101214.63;20559154;28;20094;-77
2022/10/17 19:19:13;;;;;;;16.25;6.97;;;;;;;16.61;100.00;101199.97;20491682;28;20531;-72
2022/10/17 19:29:15;;;;;;;16.55;11.38;;;;;;;16.38;100.00;101209.41;20489984;28;20086;-74
2022/10/17 19:39:16;;;;;;;17.83;11.90;;;;;;;16.34;100.00;101206.91;20453563;28;20142;-73
2022/10/17 19:49:18;;;;;;;19.23;7.80;;;;;;;16.22;100.00;101204.56;20488067;28;20093;-73
2022/10/17 19:59:19;;;;;;;19.20;7.95;;;;;;;16.08;100.00;101208.41;20491029;28;20811;-77
2022/10/17 20:09:21;;;;;;;14.48;7.50;;;;;;;15.96;100.00;101203.47;20489066;28;20051;-75
2022/10/17 20:19:22;;;;;;;19.02;8.07;;;;;;;15.75;100.00;101209.25;20490318;28;20069;-77
2022/10/17 20:29:25;;;;;;;14.10;8.25;;;;;;;15.72;100.00;101212.00;20489564;28;20066;-74
2022/10/17 20:39:26;;;;;;;16.35;8.43;;;;;;;15.60;100.00;101221.88;20472380;29;20051;-73
2022/10/17 20:49:28;;;;;;;21.50;9.20;;;;;;;15.52;100.00;101218.59;20487193;29;20515;-73
2022/10/17 20:59:29;;;;;;;16.75;8.50;;;;;;;15.42;100.00;101224.94;20488790;28;20127;-75
2022/10/17 21:09:30;;;;;;;15.50;8.18;;;;;;;15.38;100.00;101242.63;20488095;29;20081;-78
2022/10/17 21:19:32;;;;;;;15.60;8.70;;;;;;;15.34;100.00;101250.66;20486156;28;20078;-75
2022/10/17 21:29:33;;;;;;;17.77;7.53;;;;;;;15.34;100.00;101245.38;20508064;28;20392;-75
2022/10/17 21:39:34;;;;;;;16.27;9.85;;;;;;;15.32;100.00;101244.53;20566225;28;20085;-75
2022/10/17 21:49:37;;;;;;;15.40;9.55;;;;;;;15.31;100.00;101237.53;20551419;28;20542;-75
2022/10/17 21:59:38;;;;;;;16.55;11.25;;;;;;;15.30;100.00;101243.69;20564835;28;20150;-74
2022/10/17 22:09:40;;;;;;;19.50;12.13;;;;;;;15.26;100.00;101234.97;20493952;28;20058;-74
2022/10/17 22:19:41;;;;;;;21.08;10.43;;;;;;;15.21;100.00;101209.59;20506832;28;20051;-72
2022/10/17 22:29:42;;;;;;;15.70;10.07;;;;;;;15.16;100.00;101224.66;20529632;28;20484;-73
2022/10/17 22:39:43;;;;;;;18.52;10.05;;;;;;;15.11;100.00;101225.63;20523061;23;20515;-73
2022/10/17 22:49:45;;;;;;;19.05;9.27;;;;;;;15.12;100.00;101227.34;20427576;29;20079;-72
2022/10/17 22:59:46;;;;;;;21.92;8.48;;;;;;;15.11;100.00;101220.34;20389699;29;20140;-71
2022/10/17 23:09:47;;;;;;;19.02;8.07;;;;;;;15.02;100.00;101217.91;20345685;29;20568;-72
2022/10/17 23:19:49;;;;;;;14.57;8.52;;;;;;;14.93;100.00;101207.53;20347271;29;20390;-71
2022/10/17 23:29:55;;;;;;;17.70;7.82;;;;;;;14.89;100.00;101198.81;20390237;29;20059;-71
2022/10/17 23:39:56;;;;;;;15.40;8.27;;;;;;;14.72;100.00;101202.72;20501351;29;20055;-71
2022/10/17 23:49:58;;;;;;;15.80;8.57;;;;;;;14.68;100.00;101214.22;20501533;29;20101;-71
2022/10/17 23:59:59;;;;;;;15.05;7.80;;;;;;;14.62;100.00;101197.63;20500574;29;20062;-71
